Time;durP1;ratioP1;P1;durP2;ratioP2;P2;SDS_P1;SDS_P2;PMS_P1;PMS_P2;Temp;Humidity;BMP_temperature;BMP_pressure;BME280_temperature;BME280_humidity;BME280_pressure;Samples;Min_cycle;Max_cycle;Signal;HPM_P1;HPM_P2
2023/02/05 00:01:30;;;;;;;14.00;10.20;;;;;;;3.39;61.08;101828.08;106321;1277;22526;-50
2023/02/05 00:03:58;;;;;;;11.70;9.90;;;;;;;3.37;61.00;101827.19;106531;1280;24232;-51
2023/02/05 00:06:27;;;;;;;10.40;9.10;;;;;;;3.35;60.56;101829.02;106451;1278;24191;-50
2023/02/05 00:08:56;;;;;;;11.20;9.00;;;;;;;3.34;60.52;101829.98;106628;1276;25350;-52
2023/02/05 00:11:28;;;;;;;11.00;8.40;;;;;;;3.32;60.25;101832.19;106593;1276;25480;-52
2023/02/05 00:13:58;;;;;;;11.70;8.90;;;;;;;3.29;60.37;101831.29;105995;1274;1002956;-52
2023/02/05 00:16:26;;;;;;;12.30;7.90;;;;;;;3.29;60.13;101837.63;106331;1277;25332;-50
2023/02/05 00:18:55;;;;;;;9.60;8.20;;;;;;;3.28;60.00;101835.02;106058;1274;1003021;-52
2023/02/05 00:21:24;;;;;;;8.80;7.50;;;;;;;3.26;59.79;101831.36;106441;1274;22533;-51
2023/02/05 00:23:52;;;;;;;9.30;8.10;;;;;;;3.25;59.42;101831.52;106735;1273;25360;-51
2023/02/05 00:26:20;;;;;;;9.20;7.70;;;;;;;3.23;59.75;101834.56;106732;1274;22523;-51
2023/02/05 00:28:49;;;;;;;8.60;7.50;;;;;;;3.21;59.63;101835.52;106752;1273;25363;-49
2023/02/05 00:31:18;;;;;;;8.90;7.50;;;;;;;3.20;59.80;101834.81;106663;1273;22549;-50
2023/02/05 00:33:48;;;;;;;8.10;7.10;;;;;;;3.18;59.79;101831.85;106630;1277;22531;-51
2023/02/05 00:36:17;;;;;;;8.30;7.10;;;;;;;3.16;59.83;101827.52;106638;1275;25361;-51
2023/02/05 00:38:46;;;;;;;8.40;6.60;;;;;;;3.17;60.13;101829.07;106045;1274;1003640;-51
2023/02/05 00:41:14;;;;;;;10.40;6.70;;;;;;;3.17;59.78;101835.08;105968;1274;1003564;-51
2023/02/05 00:43:43;;;;;;;7.70;6.60;;;;;;;3.16;60.31;101836.10;106703;1275;25364;-52
2023/02/05 00:46:12;;;;;;;8.90;6.70;;;;;;;3.16;59.94;101832.48;106604;1275;23907;-51
2023/02/05 00:48:41;;;;;;;7.10;6.40;;;;;;;3.15;60.15;101832.45;106741;1275;25415;-51
2023/02/05 00:51:10;;;;;;;8.40;7.10;;;;;;;3.14;60.27;101832.27;106520;1275;24245;-51
2023/02/05 00:53:40;;;;;;;7.40;5.80;;;;;;;3.14;59.95;101833.61;106355;1273;24191;-51
2023/02/05 00:56:08;;;;;;;7.70;6.60;;;;;;;3.12;60.05;101832.39;106685;1273;25358;-51
2023/02/05 00:58:37;;;;;;;6.60;6.00;;;;;;;3.11;60.09;101836.13;106684;1275;25348;-51
2023/02/05 01:01:06;;;;;;;8.80;6.60;;;;;;;3.11;60.28;101835.79;105881;1273;1003019;-51
2023/02/05 01:03:34;;;;;;;6.90;6.10;;;;;;;3.11;59.88;101842.48;106356;1275;25506;-50
2023/02/05 01:06:04;;;;;;;8.30;6.50;;;;;;;3.12;59.72;101844.91;106306;1273;25332;-51
2023/02/05 01:08:33;;;;;;;8.60;7.10;;;;;;;3.12;59.66;101847.64;106237;1278;22641;-51
2023/02/05 01:11:05;;;;;;;8.00;6.80;;;;;;;3.12;60.09;101849.70;105706;1274;1003792;-51
2023/02/05 01:13:36;;;;;;;9.20;7.10;;;;;;;3.12;60.26;101846.77;106519;1273;24214;-51
2023/02/05 01:16:04;;;;;;;7.80;6.70;;;;;;;3.12;60.38;101850.56;105933;1272;1002681;-51
2023/02/05 01:18:33;;;;;;;7.50;6.50;;;;;;;3.13;60.34;101855.89;106622;1272;25344;-50
2023/02/05 01:21:02;;;;;;;7.60;6.50;;;;;;;3.12;60.29;101857.75;106083;1273;1002820;-51
2023/02/05 01:23:30;;;;;;;12.00;7.60;;;;;;;3.12;60.65;101862.71;106734;1272;26652;-50
2023/02/05 01:25:59;;;;;;;9.40;7.30;;;;;;;3.13;60.61;101864.11;106792;1272;23198;-50
2023/02/05 01:28:29;;;;;;;9.50;7.60;;;;;;;3.13;60.61;101865.66;106448;1279;25332;-50
2023/02/05 01:30:58;;;;;;;8.60;7.70;;;;;;;3.13;60.90;101863.77;105950;1272;1003044;-50
2023/02/05 01:33:28;;;;;;;9.40;8.30;;;;;;;3.11;60.88;101866.83;106795;1276;24395;-51
2023/02/05 01:35:57;;;;;;;10.20;8.30;;;;;;;3.09;61.02;101868.30;106733;1274;25358;-51
2023/02/05 01:38:26;;;;;;;11.80;8.20;;;;;;;3.08;61.42;101873.58;106003;1275;1003055;-51
2023/02/05 01:40:58;;;;;;;10.50;8.30;;;;;;;3.08;61.35;101879.24;106705;1274;25336;-50
2023/02/05 01:43:28;;;;;;;10.20;9.20;;;;;;;3.07;61.52;101882.47;106700;1275;22538;-51
2023/02/05 01:46:18;;;;;;;8.90;8.00;;;;;;;3.06;61.85;101885.70;105702;1276;1003092;-50
2023/02/05 01:48:49;;;;;;;10.80;8.70;;;;;;;3.07;61.98;101887.46;106493;1275;22911;-50
2023/02/05 01:51:17;;;;;;;9.40;8.40;;;;;;;3.10;62.14;101888.39;106363;1278;22494;-50
2023/02/05 01:53:46;;;;;;;10.10;8.10;;;;;;;3.11;62.33;101891.67;105466;1272;1002754;-50
2023/02/05 01:56:21;;;;;;;10.40;8.40;;;;;;;3.11;62.41;101892.88;106348;1272;22534;-50
2023/02/05 01:58:53;;;;;;;11.20;8.90;;;;;;;3.13;62.64;101895.50;106302;1272;23988;-50
2023/02/05 02:01:23;;;;;;;9.50;8.40;;;;;;;3.14;62.40;101894.84;106175;1272;25242;-50
2023/02/05 02:03:52;;;;;;;11.00;9.40;;;;;;;3.14;62.42;101895.02;106281;1278;22545;-50
2023/02/05 02:06:21;;;;;;;10.30;9.20;;;;;;;3.16;62.45;101892.30;106343;1276;25393;-51
2023/02/05 02:08:49;;;;;;;10.00;8.60;;;;;;;3.16;62.44;101895.05;105567;1275;1003750;-50
2023/02/05 02:11:19;;;;;;;11.10;8.80;;;;;;;3.15;62.46;101890.75;106365;1276;25390;-50
2023/02/05 02:13:48;;;;;;;10.40;9.30;;;;;;;3.14;62.78;101895.70;105570;1272;1003082;-51
2023/02/05 02:16:16;;;;;;;12.10;10.00;;;;;;;3.14;62.93;101900.85;105515;1274;1003328;-51
2023/02/05 02:18:45;;;;;;;10.70;9.50;;;;;;;3.15;62.76;101908.41;106345;1275;22533;-51
2023/02/05 02:21:27;;;;;;;11.80;9.40;;;;;;;3.16;63.24;101913.08;106698;1273;25361;-50
2023/02/05 02:24:17;;;;;;;10.40;9.40;;;;;;;3.14;62.79;101915.42;106751;1272;23900;-50
2023/02/05 02:27:21;;;;;;;11.90;10.60;;;;;;;3.14;62.86;101920.04;106011;1275;1003000;-50
2023/02/05 02:30:23;;;;;;;11.40;10.30;;;;;;;3.15;62.86;101917.66;106048;1276;1003269;-50
2023/02/05 02:32:54;;;;;;;;;;;;;;;3.15;63.24;101920.42;106073;1281;23887;-50
2023/02/05 02:35:35;;;;;;;11.20;9.50;;;;;;;3.15;62.96;101923.84;106660;1276;25408;-50
2023/02/05 02:38:34;;;;;;;10.70;9.40;;;;;;;3.13;62.98;101926.17;106364;1275;25517;-49
2023/02/05 02:41:17;;;;;;;10.80;9.50;;;;;;;3.12;63.08;101927.00;105385;1281;1002856;-50
2023/02/05 02:43:59;;;;;;;10.70;9.60;;;;;;;3.09;62.73;101935.68;105257;1281;1003819;-51
2023/02/05 02:46:51;;;;;;;9.30;8.40;;;;;;;3.06;62.99;101938.85;105824;1283;25490;-50
2023/02/05 02:49:31;;;;;;;9.70;8.70;;;;;;;3.04;62.71;101942.05;105858;1281;24430;-51
2023/02/05 02:52:02;;;;;;;11.00;8.30;;;;;;;3.00;62.01;101944.52;105837;1281;22551;-50
2023/02/05 02:54:32;;;;;;;9.40;8.50;;;;;;;2.96;62.12;101946.11;105871;1282;22684;-50
2023/02/05 02:57:02;;;;;;;9.50;7.90;;;;;;;2.93;62.11;101948.60;105880;1281;22637;-50
2023/02/05 02:59:32;;;;;;;8.20;7.40;;;;;;;2.90;61.98;101951.08;104805;1284;1002630;-50
2023/02/05 03:02:01;;;;;;;8.30;7.30;;;;;;;2.86;61.29;101954.90;105886;1283;24202;-50
2023/02/05 03:04:35;;;;;;;8.10;7.30;;;;;;;2.82;61.47;101957.52;105976;1281;25348;-50
2023/02/05 03:07:15;;;;;;;8.40;7.50;;;;;;;2.79;61.32;101956.59;105108;1287;1003035;-50
2023/02/05 03:10:02;;;;;;;8.30;7.20;;;;;;;2.76;61.33;101955.98;106111;1276;22544;-50
2023/02/05 03:12:35;;;;;;;7.80;7.00;;;;;;;2.73;61.22;101959.33;106518;1276;25340;-50
2023/02/05 03:15:05;;;;;;;7.50;6.70;;;;;;;2.70;61.15;101955.99;106313;1281;25364;-49
2023/02/05 03:17:34;;;;;;;7.70;5.90;;;;;;;2.68;60.98;101950.60;106274;1284;22639;-50
2023/02/05 03:20:29;;;;;;;8.30;6.60;;;;;;;2.64;60.44;101955.63;105693;1277;1003042;-50
2023/02/05 03:22:57;;;;;;;6.80;5.80;;;;;;;2.59;60.53;101957.04;105646;1278;1003024;-50
2023/02/05 03:25:27;;;;;;;7.30;5.90;;;;;;;2.57;60.37;101962.45;105379;1279;1003238;-50
2023/02/05 03:27:56;;;;;;;7.40;5.60;;;;;;;2.54;60.57;101960.66;106027;1285;22589;-50
2023/02/05 03:30:37;;;;;;;6.80;5.80;;;;;;;2.53;60.22;101963.52;106379;1278;22540;-50
2023/02/05 03:33:25;;;;;;;6.70;5.20;;;;;;;2.49;59.91;101962.02;106273;1279;22626;-50
2023/02/05 03:36:03;;;;;;;5.60;5.10;;;;;;;2.45;59.54;101962.61;106352;1278;25434;-49
2023/02/05 03:38:35;;;;;;;5.90;4.90;;;;;;;2.41;59.54;101957.51;105389;1281;1003848;-51
2023/02/05 03:41:15;;;;;;;5.00;4.50;;;;;;;2.37;59.47;101960.64;106390;1280;22647;-50
2023/02/05 03:44:06;;;;;;;5.40;4.40;;;;;;;2.35;59.89;101962.64;106340;1278;26628;-50
2023/02/05 03:46:50;;;;;;;4.40;3.90;;;;;;;2.34;59.56;101967.92;106418;1278;22564;-50
2023/02/05 03:49:55;;;;;;;5.70;4.50;;;;;;;2.33;59.56;101965.30;106302;1280;25211;-50
2023/02/05 03:52:31;;;;;;;4.00;3.60;;;;;;;2.32;59.46;101967.86;105961;1286;25412;-50
2023/02/05 03:55:25;;;;;;;3.20;2.90;;;;;;;2.31;59.09;101970.05;106030;1287;22680;-50
2023/02/05 03:58:03;;;;;;;3.50;3.20;;;;;;;2.28;58.59;101966.86;105237;1283;1003162;-50
2023/02/05 04:00:33;;;;;;;4.20;3.30;;;;;;;2.24;58.37;101975.48;106207;1282;25507;-50
2023/02/05 04:03:01;;;;;;;3.60;3.20;;;;;;;2.21;58.21;101979.66;105755;1275;1003788;-50
2023/02/05 04:05:33;;;;;;;;;;;;;;;2.19;58.06;101977.54;105292;1284;1002849;-50
2023/02/05 04:08:03;;;;;;;5.00;3.90;;;;;;;2.17;58.28;101983.98;105942;1280;23140;-50
2023/02/05 04:10:36;;;;;;;3.20;2.90;;;;;;;2.15;57.93;101987.83;105865;1282;25400;-51
2023/02/05 04:13:06;;;;;;;5.00;3.80;;;;;;;2.14;58.06;101990.20;105300;1284;1003226;-52
2023/02/05 04:15:36;;;;;;;4.70;3.30;;;;;;;2.13;57.81;101991.22;105848;1286;25374;-50
2023/02/05 04:18:07;;;;;;;;;;;;;;;2.12;57.56;101992.02;105271;1279;1003026;-49
2023/02/05 04:20:35;;;;;;;5.80;3.60;;;;;;;2.09;57.00;101998.95;105878;1278;22562;-50
2023/02/05 04:23:04;;;;;;;4.40;3.70;;;;;;;2.06;56.87;101996.97;105796;1284;24221;-50
2023/02/05 04:25:32;;;;;;;5.00;3.70;;;;;;;2.04;56.84;102004.08;105249;1268;1003217;-52
2023/02/05 04:28:03;;;;;;;3.90;3.50;;;;;;;2.01;56.72;102013.07;106044;1278;25410;-51
2023/02/05 04:30:32;;;;;;;4.00;3.30;;;;;;;1.99;56.67;102015.23;106397;1274;25403;-52
2023/02/05 04:33:01;;;;;;;6.30;4.00;;;;;;;1.97;56.73;102020.47;106641;1277;25334;-51
2023/02/05 04:35:30;;;;;;;5.50;4.30;;;;;;;1.95;56.49;102019.20;106406;1276;25599;-50
2023/02/05 04:37:59;;;;;;;4.90;3.90;;;;;;;1.93;56.51;102019.45;106119;1269;1003340;-52
2023/02/05 04:40:29;;;;;;;6.20;3.90;;;;;;;1.90;56.55;102020.73;106897;1269;22539;-52
2023/02/05 04:42:57;;;;;;;4.80;3.90;;;;;;;1.87;56.49;102014.83;106999;1269;23206;-49
2023/02/05 04:45:29;;;;;;;4.40;3.90;;;;;;;1.86;56.57;102026.41;106863;1268;22524;-52
2023/02/05 04:47:59;;;;;;;5.70;3.50;;;;;;;1.84;56.17;102026.52;106815;1269;22995;-51
2023/02/05 04:50:28;;;;;;;4.20;3.80;;;;;;;1.81;55.81;102026.60;106160;1273;1002969;-52
2023/02/05 04:52:56;;;;;;;5.80;3.70;;;;;;;1.80;55.97;102028.77;106268;1270;1003758;-52
2023/02/05 04:55:25;;;;;;;4.70;3.50;;;;;;;1.79;56.24;102039.49;107049;1268;25358;-51
2023/02/05 04:57:54;;;;;;;3.90;3.50;;;;;;;1.78;56.29;102038.46;106906;1271;25281;-51
2023/02/05 05:00:22;;;;;;;4.30;3.70;;;;;;;1.76;56.49;102039.73;106933;1269;25341;-51
2023/02/05 05:02:51;;;;;;;4.10;3.50;;;;;;;1.74;56.21;102039.84;106139;1272;1002832;-51
2023/02/05 05:05:19;;;;;;;4.00;3.40;;;;;;;1.72;55.79;102041.30;106014;1270;1003378;-50
2023/02/05 05:07:48;;;;;;;5.40;3.40;;;;;;;1.69;55.86;102040.55;106701;1269;25377;-51
2023/02/05 05:10:17;;;;;;;4.50;3.20;;;;;;;1.68;55.74;102042.20;106155;1270;1003398;-51
2023/02/05 05:12:45;;;;;;;3.40;3.10;;;;;;;1.65;55.50;102046.90;106971;1269;22631;-51
2023/02/05 05:15:14;;;;;;;3.40;2.70;;;;;;;1.60;55.93;102047.45;107024;1268;25447;-49
2023/02/05 05:17:44;;;;;;;5.50;2.80;;;;;;;1.60;55.76;102055.13;106835;1276;25241;-51
2023/02/05 05:20:12;;;;;;;2.90;2.60;;;;;;;1.57;55.67;102056.05;106030;1273;1002983;-51
2023/02/05 05:22:43;;;;;;;2.70;2.20;;;;;;;1.54;55.34;102052.88;106152;1269;1003862;-51
2023/02/05 05:25:11;;;;;;;2.70;2.40;;;;;;;1.52;54.79;102055.35;106908;1272;25315;-51
2023/02/05 05:27:40;;;;;;;3.20;2.40;;;;;;;1.48;54.80;102060.51;106917;1270;25366;-51
2023/02/05 05:30:10;;;;;;;2.60;2.30;;;;;;;1.43;54.97;102066.14;106940;1262;25441;-51
2023/02/05 05:32:39;;;;;;;4.80;2.60;;;;;;;1.40;55.32;102062.27;106659;1277;25357;-50
2023/02/05 05:35:07;;;;;;;3.40;2.40;;;;;;;1.39;55.46;102067.17;106193;1273;1002756;-51
2023/02/05 05:37:37;;;;;;;2.50;1.90;;;;;;;1.36;55.19;102061.94;106185;1268;1003096;-51
2023/02/05 05:45:40;;;;;;;3.40;2.40;;;;;;;1.29;55.38;102064.60;106936;1273;22533;-50
2023/02/05 05:48:09;;;;;;;3.90;2.60;;;;;;;1.27;55.49;102065.90;106902;1268;25392;-51
2023/02/05 05:50:37;;;;;;;3.50;2.40;;;;;;;1.27;55.23;102067.27;106917;1273;25315;-51
2023/02/05 05:53:06;;;;;;;3.20;2.40;;;;;;;1.24;55.10;102066.64;106878;1275;22669;-51
2023/02/05 05:55:35;;;;;;;2.90;2.10;;;;;;;1.22;55.67;102059.57;106904;1276;24349;-51
2023/02/05 05:58:03;;;;;;;5.50;2.70;;;;;;;1.21;55.48;102065.67;106862;1268;23894;-51
2023/02/05 06:00:35;;;;;;;3.60;2.50;;;;;;;1.21;55.52;102063.46;106190;1268;1003088;-50
2023/02/05 06:03:03;;;;;;;3.40;2.60;;;;;;;1.19;54.84;102066.97;106905;1273;22770;-51
2023/02/05 06:05:32;;;;;;;4.10;2.70;;;;;;;1.18;55.08;102068.63;106950;1273;22635;-51
2023/02/05 06:08:01;;;;;;;3.40;2.40;;;;;;;1.18;55.18;102073.58;106105;1275;1002910;-51
2023/02/05 06:10:31;;;;;;;3.40;2.40;;;;;;;1.19;55.58;102078.56;106734;1268;25413;-51
2023/02/05 06:13:01;;;;;;;3.20;2.70;;;;;;;1.23;55.79;102077.71;106509;1273;23262;-50
2023/02/05 06:15:30;;;;;;;2.80;2.50;;;;;;;1.30;55.46;102074.73;106038;1273;1003839;-50
2023/02/05 06:17:59;;;;;;;7.10;3.10;;;;;;;1.38;55.22;102074.67;106648;1273;22544;-50
2023/02/05 06:20:28;;;;;;;3.50;2.80;;;;;;;1.47;55.08;102080.30;106317;1276;22580;-50
2023/02/05 06:22:56;;;;;;;3.50;2.70;;;;;;;1.55;54.73;102082.34;106710;1275;25569;-50
2023/02/05 06:25:25;;;;;;;4.60;3.10;;;;;;;1.62;54.63;102087.70;106748;1270;25347;-49
2023/02/05 06:27:54;;;;;;;6.10;3.10;;;;;;;1.66;54.22;102084.06;106924;1270;25321;-49
2023/02/05 06:30:22;;;;;;;6.70;3.80;;;;;;;1.68;53.91;102087.52;107072;1269;22525;-50
2023/02/05 06:32:51;;;;;;;4.60;3.70;;;;;;;1.64;53.51;102093.40;106256;1272;1003369;-50
2023/02/05 06:35:19;;;;;;;4.70;3.70;;;;;;;1.63;53.42;102100.23;106962;1270;25525;-50
2023/02/05 06:37:48;;;;;;;4.10;3.00;;;;;;;1.63;53.41;102107.23;106918;1269;25320;-50
2023/02/05 06:40:19;;;;;;;3.80;3.10;;;;;;;1.64;52.95;102107.41;106979;1269;25337;-50
2023/02/05 06:42:48;;;;;;;4.00;3.20;;;;;;;1.63;52.95;102110.45;106853;1268;25580;-50
2023/02/05 06:45:16;;;;;;;4.70;3.80;;;;;;;1.61;53.00;102115.17;106981;1270;25345;-49
2023/02/05 06:47:45;;;;;;;5.70;3.30;;;;;;;1.63;53.67;102115.25;106849;1276;25311;-50
2023/02/05 06:50:14;;;;;;;3.10;2.10;;;;;;;1.68;53.13;102109.42;106265;1273;1002967;-50
2023/02/05 06:52:42;;;;;;;4.70;2.60;;;;;;;1.74;53.36;102111.19;106868;1273;25331;-51
2023/02/05 06:55:11;;;;;;;2.40;2.20;;;;;;;1.77;52.75;102115.42;106947;1273;25442;-50
2023/02/05 06:57:39;;;;;;;2.80;2.20;;;;;;;1.78;52.38;102117.81;106130;1269;1003394;-51
2023/02/05 07:00:09;;;;;;;5.40;2.00;;;;;;;1.74;52.41;102124.70;106821;1269;25379;-51
2023/02/05 07:02:37;;;;;;;3.90;2.10;;;;;;;1.72;52.51;102132.34;106004;1273;1002870;-51
2023/02/05 07:05:06;;;;;;;2.50;2.20;;;;;;;1.70;52.73;102130.56;106830;1270;25338;-51
2023/02/05 07:07:35;;;;;;;3.60;2.70;;;;;;;1.69;52.84;102131.70;106224;1270;1002860;-50
2023/02/05 07:10:04;;;;;;;2.70;2.30;;;;;;;1.65;52.86;102132.27;106742;1271;25346;-50
2023/02/05 07:12:32;;;;;;;3.50;2.40;;;;;;;1.61;53.12;102133.48;105739;1276;1002978;-50
2023/02/05 07:15:01;;;;;;;2.70;2.40;;;;;;;1.56;53.15;102133.13;106702;1268;24253;-51
2023/02/05 07:17:31;;;;;;;3.20;2.20;;;;;;;1.51;52.96;102137.21;106628;1269;25347;-51
2023/02/05 07:19:59;;;;;;;4.80;2.80;;;;;;;1.45;52.91;102147.45;106091;1269;1003190;-51
2023/02/05 07:22:28;;;;;;;3.60;2.50;;;;;;;1.40;52.64;102143.65;107017;1269;24279;-51
2023/02/05 07:24:57;;;;;;;4.00;3.20;;;;;;;1.34;53.03;102143.60;106875;1269;25357;-51
2023/02/05 07:27:26;;;;;;;4.50;3.00;;;;;;;1.33;53.00;102144.39;106914;1268;25467;-50
2023/02/05 07:29:54;;;;;;;4.80;3.20;;;;;;;1.30;53.33;102140.35;106103;1273;1003564;-51
2023/02/05 07:32:23;;;;;;;4.00;3.30;;;;;;;1.27;52.89;102142.80;106902;1270;22637;-51
2023/02/05 07:34:52;;;;;;;2.90;2.30;;;;;;;1.24;53.13;102146.80;106160;1270;1015285;-51
2023/02/05 07:37:20;;;;;;;3.10;2.50;;;;;;;1.23;52.77;102140.41;106950;1270;24203;-51
2023/02/05 07:39:49;;;;;;;3.50;2.40;;;;;;;1.21;53.11;102149.60;106109;1269;1002871;-51
2023/02/05 07:42:19;;;;;;;3.80;2.40;;;;;;;1.21;53.25;102153.67;106078;1259;1003379;-51
2023/02/05 07:44:54;;;;;;;2.80;2.30;;;;;;;1.21;53.87;102155.75;106730;1270;25513;-49
2023/02/05 07:47:22;;;;;;;3.00;2.20;;;;;;;1.22;53.42;102154.08;105931;1276;1002886;-50
2023/02/05 07:49:57;;;;;;;3.70;2.20;;;;;;;1.21;53.17;102159.50;106886;1269;25350;-51
2023/02/05 07:52:25;;;;;;;3.70;2.60;;;;;;;1.21;53.98;102161.89;106168;1270;1003766;-51
2023/02/05 07:54:54;;;;;;;2.40;2.10;;;;;;;1.25;54.09;102158.13;106044;1273;1003457;-51
2023/02/05 07:57:25;;;;;;;2.50;2.30;;;;;;;1.29;53.36;102157.94;107005;1269;25500;-50
2023/02/05 07:59:57;;;;;;;3.20;2.00;;;;;;;1.30;52.89;102160.36;106981;1270;22578;-51
2023/02/05 08:02:26;;;;;;;2.50;2.20;;;;;;;1.30;52.85;102158.31;106950;1270;25351;-50
2023/02/05 08:04:54;;;;;;;3.80;2.20;;;;;;;1.33;53.35;102158.24;106163;1273;1002851;-50
2023/02/05 08:07:23;;;;;;;2.70;2.40;;;;;;;1.37;53.22;102164.73;106849;1270;22535;-51
2023/02/05 08:09:52;;;;;;;2.10;1.80;;;;;;;1.42;53.26;102166.30;106752;1271;25384;-51
2023/02/05 08:12:20;;;;;;;2.40;2.20;;;;;;;1.46;52.87;102170.02;105971;1270;1002844;-51
2023/02/05 08:14:51;;;;;;;2.80;2.20;;;;;;;1.50;53.21;102171.73;106639;1273;25364;-51
2023/02/05 08:17:19;;;;;;;2.60;2.10;;;;;;;1.54;52.65;102167.79;106797;1276;23909;-51
2023/02/05 08:19:49;;;;;;;2.40;2.00;;;;;;;1.58;52.50;102171.35;106684;1269;25326;-50
2023/02/05 08:22:17;;;;;;;2.70;2.30;;;;;;;1.63;52.89;102171.02;106655;1270;24226;-51
2023/02/05 08:24:46;;;;;;;3.30;2.50;;;;;;;1.71;53.05;102173.88;105963;1261;1003562;-50
2023/02/05 08:27:14;;;;;;;2.30;2.10;;;;;;;1.78;52.88;102174.98;106695;1270;25351;-51
2023/02/05 08:29:46;;;;;;;5.60;3.50;;;;;;;1.83;52.97;102178.94;106245;1270;25308;-50
2023/02/05 08:32:15;;;;;;;3.50;2.40;;;;;;;1.87;52.61;102179.42;105944;1270;1002640;-51
2023/02/05 08:34:43;;;;;;;3.10;2.30;;;;;;;1.92;52.67;102177.55;106529;1274;25350;-51
2023/02/05 08:37:12;;;;;;;2.10;1.90;;;;;;;1.98;52.34;102177.77;106722;1270;25319;-51
2023/02/05 08:39:40;;;;;;;3.40;2.20;;;;;;;2.01;52.10;102184.05;106137;1268;1002877;-51
2023/02/05 08:42:09;;;;;;;3.10;2.30;;;;;;;2.03;51.78;102183.94;106117;1269;1002993;-50
2023/02/05 08:44:37;;;;;;;2.10;1.90;;;;;;;2.05;51.32;102177.34;106834;1268;25406;-51
2023/02/05 08:47:06;;;;;;;3.60;2.10;;;;;;;2.07;50.73;102174.65;106133;1277;1003677;-51
2023/02/05 08:49:34;;;;;;;3.20;2.30;;;;;;;2.09;50.36;102178.33;106750;1271;25439;-51
2023/02/05 08:52:05;;;;;;;2.70;2.10;;;;;;;2.09;50.69;102181.25;106116;1272;1003670;-51
2023/02/05 08:54:34;;;;;;;2.40;2.20;;;;;;;2.10;50.61;102176.84;106836;1268;25438;-50
2023/02/05 08:57:03;;;;;;;2.70;1.80;;;;;;;2.13;50.62;102181.21;106211;1268;1002983;-51
2023/02/05 08:59:32;;;;;;;2.50;2.20;;;;;;;2.17;51.31;102184.09;106865;1270;25342;-51
2023/02/05 09:02:01;;;;;;;2.90;2.00;;;;;;;2.22;51.35;102183.08;106892;1269;25329;-50
2023/02/05 09:04:30;;;;;;;3.40;1.90;;;;;;;2.27;51.33;102182.38;106842;1269;22530;-51
2023/02/05 09:06:58;;;;;;;3.70;2.60;;;;;;;2.33;50.95;102182.73;105926;1269;1003474;-50
2023/02/05 09:09:27;;;;;;;3.00;2.20;;;;;;;2.37;50.86;102180.70;106804;1268;25483;-50
2023/02/05 09:11:57;;;;;;;3.70;2.10;;;;;;;2.42;50.67;102182.92;106810;1271;25523;-50
2023/02/05 09:14:26;;;;;;;3.60;2.40;;;;;;;2.47;49.97;102183.58;106810;1269;24200;-50
2023/02/05 09:16:54;;;;;;;2.80;2.50;;;;;;;2.48;49.77;102181.76;106923;1269;25319;-50
2023/02/05 09:19:23;;;;;;;3.40;2.40;;;;;;;2.49;50.01;102179.89;106797;1270;25302;-51
2023/02/05 09:21:51;;;;;;;3.50;2.30;;;;;;;2.49;50.30;102179.22;105755;1276;1002972;-51
2023/02/05 09:24:21;;;;;;;2.30;2.10;;;;;;;2.50;50.70;102178.89;106642;1269;25275;-50
2023/02/05 09:26:50;;;;;;;2.40;2.10;;;;;;;2.53;51.26;102175.39;106659;1269;25329;-49
2023/02/05 09:29:18;;;;;;;2.40;1.90;;;;;;;2.55;50.89;102172.56;106482;1274;22532;-50
2023/02/05 09:31:47;;;;;;;3.10;2.10;;;;;;;2.56;50.31;102178.40;106013;1269;1003622;-50
2023/02/05 09:34:15;;;;;;;2.60;2.30;;;;;;;2.56;50.57;102174.80;106817;1269;25329;-52
2023/02/05 09:36:44;;;;;;;2.30;2.00;;;;;;;2.57;50.41;102170.23;106889;1269;25366;-51
2023/02/05 09:39:13;;;;;;;4.70;2.00;;;;;;;2.56;50.02;102177.73;106751;1270;24320;-50
2023/02/05 09:42:15;;;;;;;3.80;2.70;;;;;;;2.54;50.21;102176.64;106651;1276;24201;-50
2023/02/05 09:44:50;;;;;;;2.40;2.10;;;;;;;2.54;50.08;102173.55;105956;1254;1003865;-49
2023/02/05 09:47:37;;;;;;;2.40;1.90;;;;;;;2.55;50.13;102169.98;106336;1272;25331;-50
2023/02/05 09:50:17;;;;;;;2.20;1.90;;;;;;;2.56;49.73;102171.23;106633;1270;25332;-50
2023/02/05 09:52:49;;;;;;;2.20;1.80;;;;;;;2.61;50.30;102176.00;106598;1257;22548;-50
2023/02/05 09:55:24;;;;;;;2.30;2.10;;;;;;;2.65;50.10;102177.52;105843;1269;1003485;-49
2023/02/05 09:57:55;;;;;;;4.90;2.30;;;;;;;2.69;49.88;102175.08;105827;1270;1003578;-50
2023/02/05 10:00:28;;;;;;;2.30;1.90;;;;;;;2.70;49.61;102172.73;106637;1270;22528;-49
2023/02/05 10:03:33;;;;;;;2.20;1.90;;;;;;;2.69;49.68;102171.83;105849;1270;1003016;-49
2023/02/05 10:06:14;;;;;;;2.30;1.90;;;;;;;2.71;49.53;102167.41;106820;1264;22515;-50
2023/02/05 10:09:03;;;;;;;2.60;1.80;;;;;;;2.73;49.90;102164.41;106846;1270;22528;-49
2023/02/05 10:11:50;;;;;;;2.90;2.00;;;;;;;2.76;50.11;102168.61;105984;1272;1003288;-50
2023/02/05 10:14:43;;;;;;;2.80;2.30;;;;;;;2.78;50.19;102165.27;106888;1269;25328;-50
2023/02/05 10:17:33;;;;;;;3.00;2.30;;;;;;;2.82;50.17;102161.81;106139;1270;1003337;-50
2023/02/05 10:20:08;;;;;;;2.50;2.30;;;;;;;2.87;49.37;102161.62;106215;1269;1003041;-50
2023/02/05 10:23:03;;;;;;;3.20;2.40;;;;;;;2.91;49.76;102168.27;106883;1270;22622;-50
2023/02/05 10:26:10;;;;;;;2.40;2.20;;;;;;;2.96;49.94;102168.76;106900;1269;24200;-50
2023/02/05 10:28:51;;;;;;;3.30;2.20;;;;;;;2.99;49.43;102172.28;106659;1269;22568;-50
2023/02/05 10:31:40;;;;;;;2.40;1.90;;;;;;;3.01;50.18;102167.22;106201;1269;1003716;-51
2023/02/05 10:34:49;;;;;;;2.20;2.00;;;;;;;3.05;50.20;102168.89;106805;1268;25384;-50
2023/02/05 10:37:20;;;;;;;2.60;2.10;;;;;;;3.08;49.61;102164.16;106713;1272;24196;-50
2023/02/05 10:39:48;;;;;;;2.90;2.20;;;;;;;3.05;49.74;102168.90;106005;1272;1003414;-50
2023/02/05 10:42:36;;;;;;;2.80;2.50;;;;;;;3.04;49.61;102162.67;106620;1273;25322;-50
2023/02/05 10:45:12;;;;;;;2.30;1.80;;;;;;;3.03;49.99;102160.23;106371;1273;24295;-50
2023/02/05 10:47:47;;;;;;;2.50;2.00;;;;;;;3.03;49.59;102161.30;106274;1281;24266;-51
2023/02/05 10:50:19;;;;;;;2.60;2.40;;;;;;;3.04;49.97;102159.59;106579;1279;25542;-50
2023/02/05 10:52:47;;;;;;;2.50;2.00;;;;;;;3.07;49.38;102155.76;105707;1273;1002648;-50
2023/02/05 10:55:16;;;;;;;2.40;1.80;;;;;;;3.10;49.35;102155.48;106335;1279;25376;-50
2023/02/05 10:57:44;;;;;;;3.00;2.40;;;;;;;3.13;48.79;102152.32;106454;1273;25403;-50
2023/02/05 11:00:15;;;;;;;2.20;2.00;;;;;;;3.15;49.48;102155.13;105602;1273;1002929;-50
2023/02/05 11:02:50;;;;;;;4.30;2.80;;;;;;;3.16;49.03;102152.77;106359;1277;25341;-50
2023/02/05 11:05:23;;;;;;;2.50;2.30;;;;;;;3.17;49.32;102151.09;105602;1279;1002852;-49
2023/02/05 11:07:52;;;;;;;3.80;2.30;;;;;;;3.19;49.68;102154.55;105428;1280;1003331;-50
2023/02/05 11:10:26;;;;;;;4.20;2.00;;;;;;;3.22;49.56;102152.09;105550;1273;1003768;-50
2023/02/05 11:13:14;;;;;;;2.40;2.20;;;;;;;3.24;49.56;102154.58;106344;1276;22522;-49
2023/02/05 11:15:56;;;;;;;2.50;2.30;;;;;;;3.27;48.85;102155.84;106609;1268;25329;-50
2023/02/05 11:18:27;;;;;;;3.00;2.20;;;;;;;3.27;48.95;102157.39;105910;1270;1002709;-50
2023/02/05 11:21:05;;;;;;;2.40;2.20;;;;;;;3.27;49.53;102161.16;106771;1269;25433;-50
2023/02/05 11:23:38;;;;;;;2.70;2.40;;;;;;;3.30;49.79;102158.18;106712;1269;24319;-49
2023/02/05 11:26:22;;;;;;;3.10;2.50;;;;;;;3.37;49.78;102162.13;106026;1269;1003708;-49
2023/02/05 11:28:50;;;;;;;3.70;2.50;;;;;;;3.39;49.06;102154.80;106803;1269;22583;-49
2023/02/05 11:31:32;;;;;;;3.80;2.90;;;;;;;3.36;49.02;102151.13;106763;1269;25471;-49
2023/02/05 11:34:06;;;;;;;3.70;3.00;;;;;;;3.33;49.06;102155.15;106012;1269;1003388;-48
2023/02/05 11:36:36;;;;;;;3.40;3.10;;;;;;;3.30;49.17;102154.58;106311;1268;309660;-52
2023/02/05 11:39:05;;;;;;;5.00;3.70;;;;;;;3.32;49.56;102150.16;105915;1270;1002346;-51
2023/02/05 11:41:47;;;;;;;5.40;3.90;;;;;;;3.38;49.80;102151.70;106633;1268;22544;-52
2023/02/05 11:44:17;;;;;;;;;;;;;;;3.41;49.57;102156.75;106683;1269;25384;-48
2023/02/05 11:46:46;;;;;;;3.30;2.90;;;;;;;3.41;50.01;102152.81;105880;1269;1003792;-51
2023/02/05 11:49:34;;;;;;;4.80;2.60;;;;;;;3.40;49.80;102153.30;106008;1269;1003726;-51